createdAt,value
2023-11-16T00:00:19.685Z,8.93
2023-11-16T00:03:24.489Z,8.96
2023-11-16T00:06:28.456Z,9.01
2023-11-16T00:09:31.748Z,9.04
2023-11-16T00:12:34.928Z,9.07
2023-11-16T00:15:39.792Z,9.02
2023-11-16T00:18:45.244Z,9.03
2023-11-16T00:21:48.520Z,9.02
2023-11-16T00:24:54.181Z,8.95
2023-11-16T00:27:57.413Z,8.89
2023-11-16T00:31:01.866Z,8.86
2023-11-16T00:34:04.895Z,8.82
2023-11-16T00:37:08.075Z,8.79
2023-11-16T00:40:15.475Z,8.76
2023-11-16T00:43:18.825Z,8.70
2023-11-16T00:46:23.358Z,8.66
2023-11-16T00:49:27.159Z,8.64
2023-11-16T00:52:30.324Z,8.62
2023-11-16T00:55:33.567Z,8.60
2023-11-16T00:58:42.566Z,8.60
2023-11-16T01:01:46.137Z,8.59
2023-11-16T01:04:49.348Z,8.56
2023-11-16T01:07:53.689Z,8.64
2023-11-16T01:11:02.904Z,8.54
2023-11-16T01:14:09.882Z,8.54
2023-11-16T01:17:28.046Z,8.53
2023-11-16T01:20:36.253Z,8.51
2023-11-16T01:23:40.804Z,8.48
2023-11-16T01:26:44.858Z,8.45
2023-11-16T01:29:50.866Z,8.40
2023-11-16T01:32:55.759Z,8.40
2023-11-16T01:36:02.264Z,8.43
2023-11-16T01:39:06.060Z,8.42
2023-11-16T01:42:11.242Z,8.39
2023-11-16T01:45:45.386Z,8.42
2023-11-16T01:48:50.726Z,8.35
2023-11-16T01:51:59.053Z,8.36
2023-11-16T01:55:05.860Z,8.32
2023-11-16T01:58:10.889Z,8.37
2023-11-16T02:01:14.534Z,8.31
2023-11-16T02:04:18.136Z,8.31
2023-11-16T02:07:22.824Z,8.32
2023-11-16T02:10:26.917Z,8.31
2023-11-16T02:13:30.337Z,8.30
2023-11-16T02:16:40.621Z,8.24
2023-11-16T02:19:44.602Z,8.23
2023-11-16T02:22:54.312Z,8.18
2023-11-16T02:25:58.100Z,8.16
2023-11-16T02:29:01.727Z,8.15
2023-11-16T02:32:05.540Z,8.13
2023-11-16T02:35:10.223Z,8.10
2023-11-16T02:38:14.190Z,8.05
2023-11-16T02:41:17.881Z,7.99
2023-11-16T02:44:22.523Z,7.93
2023-11-16T02:47:26.020Z,7.84
2023-11-16T02:50:29.257Z,7.90
2023-11-16T02:53:32.472Z,7.91
2023-11-16T02:56:36.314Z,7.88
2023-11-16T02:59:39.627Z,7.82
2023-11-16T03:02:50.481Z,7.77
2023-11-16T03:05:53.679Z,7.77
2023-11-16T03:08:57.934Z,7.79
2023-11-16T03:12:02.618Z,7.75
2023-11-16T03:15:06.637Z,7.73
2023-11-16T03:18:10.336Z,7.74
2023-11-16T03:21:18.600Z,7.65
2023-11-16T03:24:21.842Z,7.71
2023-11-16T03:27:25.720Z,7.77
2023-11-16T03:30:31.830Z,7.78
2023-11-16T03:33:37.613Z,7.81
2023-11-16T03:36:41.158Z,7.81
2023-11-16T03:39:47.240Z,7.82
2023-11-16T03:42:52.393Z,7.87
2023-11-16T03:45:56.010Z,7.96
2023-11-16T03:49:04.918Z,8.04
2023-11-16T03:52:08.421Z,8.11
2023-11-16T03:55:11.627Z,8.20
2023-11-16T03:58:16.246Z,8.21
2023-11-16T04:01:20.515Z,8.29
2023-11-16T04:04:30.378Z,8.32
2023-11-16T04:07:35.674Z,8.35
2023-11-16T04:10:39.209Z,8.33
2023-11-16T04:13:44.739Z,8.28
2023-11-16T04:16:54.101Z,8.21
2023-11-16T04:20:01.007Z,8.19
2023-11-16T04:23:07.228Z,8.17
2023-11-16T04:26:11.416Z,8.16
2023-11-16T04:29:17.747Z,8.13
2023-11-16T04:32:25.091Z,8.09
2023-11-16T04:35:28.938Z,8.06
2023-11-16T04:38:32.310Z,8.04
2023-11-16T04:41:37.819Z,8.03
2023-11-16T04:44:46.420Z,8.02
2023-11-16T04:47:50.252Z,8.01
2023-11-16T04:50:57.223Z,8.00
2023-11-16T04:54:00.594Z,7.95
2023-11-16T04:57:04.038Z,8.00
2023-11-16T05:00:12.021Z,7.95
2023-11-16T05:03:15.152Z,7.89
2023-11-16T05:06:18.603Z,7.84
2023-11-16T05:12:34.015Z,7.83
2023-11-16T05:15:41.052Z,7.76
2023-11-16T05:18:44.420Z,7.69
2023-11-16T05:21:48.313Z,7.63
2023-11-16T05:24:51.588Z,7.51
2023-11-16T05:27:54.989Z,7.43
2023-11-16T05:30:58.316Z,7.39
2023-11-16T05:34:02.109Z,7.32
2023-11-16T05:37:09.262Z,7.31
2023-11-16T05:40:14.487Z,7.21
2023-11-16T05:43:22.519Z,7.25
2023-11-16T05:46:42.066Z,7.19
2023-11-16T05:49:47.325Z,7.24
2023-11-16T05:52:56.790Z,7.27
2023-11-16T05:56:01.911Z,7.20
2023-11-16T05:59:12.909Z,7.15
2023-11-16T06:02:18.718Z,7.19
2023-11-16T06:05:28.078Z,7.18
2023-11-16T06:08:39.797Z,7.24
2023-11-16T06:11:48.806Z,7.29
2023-11-16T06:14:56.488Z,7.34
2023-11-16T06:18:04.155Z,7.45
2023-11-16T06:21:07.827Z,7.58
2023-11-16T06:24:11.638Z,7.59
2023-11-16T06:27:21.642Z,7.79
2023-11-16T06:30:30.936Z,7.93
2023-11-16T06:33:34.371Z,8.00
2023-11-16T06:36:47.965Z,8.10
2023-11-16T06:39:56.901Z,8.16
2023-11-16T06:43:07.607Z,8.22
2023-11-16T06:46:14.761Z,8.32
2023-11-16T06:49:18.166Z,8.39
2023-11-16T06:52:42.031Z,8.46
2023-11-16T06:55:54.073Z,8.51
2023-11-16T06:59:01.746Z,8.63
2023-11-16T07:02:10.432Z,8.73
2023-11-16T07:05:25.450Z,8.87
2023-11-16T07:12:49.181Z,9.11
2023-11-16T07:16:04.436Z,9.27
2023-11-16T07:19:17.796Z,9.48
2023-11-16T07:22:22.315Z,9.65
2023-11-16T07:25:35.567Z,9.88
2023-11-16T07:28:43.607Z,9.96
2023-11-16T07:31:50.867Z,10.16
2023-11-16T07:35:00.286Z,10.34
2023-11-16T07:38:10.295Z,10.46
2023-11-16T07:41:15.941Z,10.67
2023-11-16T07:44:22.935Z,10.87
2023-11-16T07:47:53.595Z,10.98
2023-11-16T07:50:58.913Z,11.13
2023-11-16T07:54:08.229Z,11.27
2023-11-16T07:57:25.973Z,11.62
2023-11-16T08:00:57.337Z,11.84
2023-11-16T08:04:01.233Z,12.07
2023-11-16T08:07:05.379Z,12.19
2023-11-16T08:10:11.270Z,12.41
2023-11-16T08:13:20.644Z,12.68
2023-11-16T08:16:25.508Z,12.86
2023-11-16T08:19:33.374Z,13.06
2023-11-16T08:22:38.897Z,13.43
2023-11-16T08:25:49.484Z,13.63
2023-11-16T08:28:57.190Z,13.89
2023-11-16T08:32:06.936Z,14.17
2023-11-16T08:35:24.724Z,14.42
2023-11-16T08:38:29.481Z,14.62
2023-11-16T08:41:36.961Z,15.03
2023-11-16T08:44:41.074Z,15.29
2023-11-16T08:47:53.178Z,15.38
2023-11-16T08:51:11.243Z,15.68
2023-11-16T08:54:15.519Z,15.94
2023-11-16T08:57:23.054Z,16.06
2023-11-16T09:00:33.339Z,16.31
2023-11-16T09:03:37.996Z,16.52
2023-11-16T09:07:03.175Z,16.50
2023-11-16T09:10:14.342Z,16.54
2023-11-16T09:13:21.462Z,16.71
2023-11-16T09:16:27.482Z,16.95
2023-11-16T09:19:34.843Z,16.81
2023-11-16T09:22:43.608Z,16.71
2023-11-16T09:25:46.740Z,16.53
2023-11-16T09:29:07.699Z,16.39
2023-11-16T09:32:23.289Z,16.52
2023-11-16T09:35:32.669Z,16.70
2023-11-16T09:38:41.300Z,16.62
2023-11-16T09:41:52.535Z,16.68
2023-11-16T09:45:04.762Z,16.79
2023-11-16T09:48:37.610Z,16.78
2023-11-16T09:51:57.638Z,16.79
2023-11-16T09:55:08.337Z,16.81
2023-11-16T09:58:23.856Z,16.85
2023-11-16T10:01:40.192Z,16.59
2023-11-16T10:04:48.953Z,16.33
2023-11-16T10:07:58.252Z,16.17
2023-11-16T10:11:06.987Z,16.27
2023-11-16T10:14:11.215Z,16.18
2023-11-16T10:17:14.481Z,16.03
2023-11-16T10:20:25.124Z,15.81
2023-11-16T10:23:28.569Z,15.73
2023-11-16T10:26:36.507Z,15.69
2023-11-16T10:29:43.083Z,15.64
2023-11-16T10:32:51.606Z,15.67
2023-11-16T10:35:57.226Z,15.63
2023-11-16T10:39:02.833Z,15.63
2023-11-16T10:42:11.158Z,15.69
2023-11-16T10:45:28.127Z,15.71
2023-11-16T10:48:36.519Z,15.94
2023-11-16T10:51:56.950Z,15.90
2023-11-16T10:55:24.041Z,15.53
2023-11-16T10:58:37.260Z,15.36
2023-11-16T11:01:49.306Z,15.46
2023-11-16T11:04:55.681Z,15.44
2023-11-16T11:08:09.265Z,15.24
2023-11-16T11:11:26.060Z,15.39
2023-11-16T11:14:30.784Z,15.31
2023-11-16T11:17:46.810Z,15.28
2023-11-16T11:21:17.901Z,15.28
2023-11-16T11:24:30.889Z,15.28
2023-11-16T11:27:43.150Z,15.46
2023-11-16T11:31:01.084Z,15.23
2023-11-16T11:34:15.439Z,15.25
2023-11-16T11:37:43.108Z,15.22
2023-11-16T11:40:56.831Z,15.13
2023-11-16T11:44:09.539Z,14.94
2023-11-16T11:47:16.340Z,14.95
2023-11-16T11:50:22.877Z,14.84
2023-11-16T11:53:31.053Z,14.93
2023-11-16T11:56:39.601Z,14.95
2023-11-16T11:59:47.192Z,14.88
2023-11-16T12:02:51.856Z,14.95
2023-11-16T12:06:01.933Z,14.91
2023-11-16T12:09:05.272Z,14.86
2023-11-16T12:12:11.144Z,14.67
2023-11-16T12:15:19.514Z,14.65
2023-11-16T12:18:24.652Z,14.68
2023-11-16T12:21:28.639Z,14.61
2023-11-16T12:24:34.531Z,14.61
2023-11-16T12:27:45.730Z,14.65
2023-11-16T12:30:57.445Z,14.66
2023-11-16T12:34:08.042Z,14.57
2023-11-16T12:37:12.317Z,14.64
2023-11-16T12:40:20.964Z,14.61
2023-11-16T12:43:29.372Z,14.54
2023-11-16T12:46:54.799Z,14.61
2023-11-16T12:50:00.135Z,14.44
2023-11-16T12:53:05.329Z,14.51
2023-11-16T12:56:13.659Z,14.51
2023-11-16T12:59:19.256Z,14.53
2023-11-16T13:02:23.915Z,14.43
2023-11-16T13:05:28.438Z,14.34
2023-11-16T13:08:40.721Z,14.10
2023-11-16T13:11:50.565Z,14.08
2023-11-16T13:14:54.155Z,13.88
2023-11-16T13:17:57.229Z,13.87
2023-11-16T13:21:05.622Z,13.73
2023-11-16T13:24:09.588Z,13.56
2023-11-16T13:27:14.354Z,13.50
2023-11-16T13:30:25.728Z,13.48
2023-11-16T13:33:30.963Z,13.34
2023-11-16T13:36:53.377Z,13.19
2023-11-16T13:40:00.507Z,13.13
2023-11-16T13:43:04.406Z,13.06
2023-11-16T13:46:07.777Z,13.10
2023-11-16T13:49:11.970Z,13.23
2023-11-16T13:52:19.302Z,13.03
2023-11-16T13:55:22.597Z,12.92
2023-11-16T13:58:26.475Z,12.71
2023-11-16T14:01:35.867Z,12.61
2023-11-16T14:04:41.759Z,12.72
2023-11-16T14:07:44.925Z,12.65
2023-11-16T14:10:48.195Z,12.54
2023-11-16T14:13:51.345Z,12.39
2023-11-16T14:16:54.960Z,12.29
2023-11-16T14:19:57.986Z,12.12
2023-11-16T14:23:01.306Z,12.05
2023-11-16T14:26:07.327Z,11.90
2023-11-16T14:29:13.276Z,11.78
2023-11-16T14:32:17.368Z,11.67
2023-11-16T14:35:21.906Z,11.61
2023-11-16T14:38:27.428Z,11.51
2023-11-16T14:41:30.669Z,11.44
2023-11-16T14:44:33.844Z,11.33
2023-11-16T14:47:40.124Z,11.24
2023-11-16T14:50:44.216Z,11.17
2023-11-16T14:53:54.639Z,11.09
2023-11-16T14:57:02.997Z,11.05
2023-11-16T15:00:07.609Z,11.01
2023-11-16T15:03:11.201Z,10.93
2023-11-16T15:06:14.493Z,10.89
2023-11-16T15:09:17.884Z,10.80
2023-11-16T15:12:21.040Z,10.77
2023-11-16T15:15:24.434Z,10.74
2023-11-16T15:18:27.703Z,10.72
2023-11-16T15:21:34.438Z,10.51
2023-11-16T15:24:41.039Z,10.56
2023-11-16T15:27:46.750Z,10.48
2023-11-16T15:30:50.135Z,10.53
2023-11-16T15:33:53.645Z,10.55
2023-11-16T15:37:01.983Z,10.80
2023-11-16T15:40:06.957Z,10.88
2023-11-16T15:43:11.021Z,10.91
2023-11-16T15:46:15.961Z,10.94
2023-11-16T15:49:20.681Z,10.94
2023-11-16T15:52:33.953Z,10.93
2023-11-16T15:55:37.059Z,10.88
2023-11-16T15:58:41.457Z,10.84
2023-11-16T16:01:49.260Z,10.81
2023-11-16T16:04:58.536Z,10.79
2023-11-16T16:08:02.777Z,10.84
2023-11-16T16:11:06.484Z,10.89
2023-11-16T16:14:13.192Z,10.83
2023-11-16T16:17:17.498Z,10.84
2023-11-16T16:20:26.070Z,10.81
2023-11-16T16:23:36.934Z,10.79
2023-11-16T16:26:52.716Z,10.76
2023-11-16T16:29:57.472Z,10.69
2023-11-16T16:33:01.518Z,10.66
2023-11-16T16:36:05.676Z,10.60
2023-11-16T16:39:14.564Z,10.57
2023-11-16T16:42:19.753Z,10.50
2023-11-16T16:45:24.587Z,10.52
2023-11-16T16:48:29.596Z,10.55
2023-11-16T16:51:34.136Z,10.47
2023-11-16T16:54:38.003Z,10.45
2023-11-16T16:57:41.494Z,10.44
2023-11-16T17:00:46.944Z,10.43
2023-11-16T17:03:52.731Z,10.46
2023-11-16T17:06:56.227Z,10.51
2023-11-16T17:09:59.654Z,10.57
2023-11-16T17:13:07.937Z,10.71
2023-11-16T17:16:11.386Z,10.74
2023-11-16T17:19:14.684Z,10.91
2023-11-16T17:22:17.813Z,11.16
2023-11-16T17:25:22.937Z,11.12
2023-11-16T17:28:26.822Z,10.91
2023-11-16T17:31:34.917Z,10.76
2023-11-16T17:34:40.314Z,10.69
2023-11-16T17:37:48.786Z,10.67
2023-11-16T17:40:52.138Z,10.63
2023-11-16T17:43:55.712Z,10.59
2023-11-16T17:46:59.702Z,10.52
2023-11-16T17:50:03.103Z,10.47
2023-11-16T17:53:08.093Z,10.46
2023-11-16T17:56:11.746Z,10.45
2023-11-16T17:59:17.856Z,10.43
2023-11-16T18:02:20.837Z,10.42
2023-11-16T18:05:26.023Z,10.35
2023-11-16T18:08:31.739Z,10.34
2023-11-16T18:11:40.225Z,10.40
2023-11-16T18:14:43.568Z,10.43
2023-11-16T18:17:47.414Z,10.44
2023-11-16T18:20:53.331Z,10.46
2023-11-16T18:23:56.812Z,10.48
2023-11-16T18:27:00.469Z,10.46
2023-11-16T18:30:08.553Z,10.52
2023-11-16T18:33:14.170Z,10.57
2023-11-16T18:36:23.263Z,10.57
2023-11-16T18:39:29.276Z,10.63
2023-11-16T18:42:36.687Z,10.68
2023-11-16T18:45:44.445Z,10.69
2023-11-16T18:48:53.878Z,10.65
2023-11-16T18:52:02.748Z,10.65
2023-11-16T18:55:08.844Z,10.69
2023-11-16T18:58:14.649Z,10.74
2023-11-16T19:01:18.380Z,10.88
2023-11-16T19:04:22.685Z,10.89
2023-11-16T19:07:26.266Z,10.91
2023-11-16T19:10:31.972Z,10.89
2023-11-16T19:13:35.256Z,10.79
2023-11-16T19:16:40.421Z,10.75
2023-11-16T19:19:46.940Z,10.74
2023-11-16T19:22:53.293Z,10.72
2023-11-16T19:26:01.581Z,10.76
2023-11-16T19:29:08.218Z,10.82
2023-11-16T19:32:11.772Z,10.99
2023-11-16T19:35:17.332Z,10.83
2023-11-16T19:38:20.949Z,10.84
2023-11-16T19:41:24.698Z,10.82
2023-11-16T19:44:28.619Z,10.86
2023-11-16T19:47:42.967Z,10.86
2023-11-16T19:50:51.305Z,10.90
2023-11-16T19:53:55.758Z,10.92
2023-11-16T19:56:59.914Z,10.99
2023-11-16T20:00:05.914Z,11.01
2023-11-16T20:03:12.724Z,11.03
2023-11-16T20:06:18.282Z,10.94
2023-11-16T20:09:21.837Z,10.93
2023-11-16T20:12:30.300Z,10.92
2023-11-16T20:15:36.793Z,11.03
2023-11-16T20:18:42.515Z,10.98
2023-11-16T20:21:46.275Z,10.93
2023-11-16T20:24:51.424Z,10.95
2023-11-16T20:27:57.929Z,10.99
2023-11-16T20:31:05.035Z,10.96
2023-11-16T20:34:09.783Z,10.90
2023-11-16T20:37:15.812Z,10.96
2023-11-16T20:40:20.319Z,10.99
2023-11-16T20:43:25.256Z,10.94
2023-11-16T20:46:28.671Z,10.97
2023-11-16T20:49:35.943Z,10.97
2023-11-16T20:52:39.203Z,11.04
2023-11-16T20:55:42.772Z,10.94
2023-11-16T20:58:46.203Z,11.04
2023-11-16T21:01:51.046Z,11.20
2023-11-16T21:04:55.276Z,11.21
2023-11-16T21:07:58.586Z,11.14
2023-11-16T21:11:05.446Z,11.17
2023-11-16T21:14:11.805Z,11.09
2023-11-16T21:17:17.134Z,11.10
2023-11-16T21:20:22.887Z,11.17
2023-11-16T21:23:26.143Z,11.09
2023-11-16T21:26:30.596Z,11.06
2023-11-16T21:29:34.635Z,11.02
2023-11-16T21:32:39.510Z,10.97
2023-11-16T21:35:42.929Z,10.93
2023-11-16T21:38:45.777Z,10.93
2023-11-16T21:41:48.720Z,10.82
2023-11-16T21:44:53.422Z,10.72
2023-11-16T21:47:57.154Z,10.70
2023-11-16T21:51:00.210Z,10.72
2023-11-16T21:54:05.540Z,10.76
2023-11-16T21:57:08.817Z,10.74
2023-11-16T22:00:15.223Z,10.78
2023-11-16T22:03:18.168Z,10.81
2023-11-16T22:06:22.879Z,10.79
2023-11-16T22:09:26.023Z,10.75
2023-11-16T22:12:32.562Z,10.71
2023-11-16T22:15:36.650Z,10.73
2023-11-16T22:18:42.808Z,10.61
2023-11-16T22:21:46.047Z,10.60
2023-11-16T22:24:50.093Z,10.53
2023-11-16T22:27:56.136Z,10.52
2023-11-16T22:30:59.947Z,10.47
2023-11-16T22:34:04.397Z,10.45
2023-11-16T22:37:07.205Z,10.42
2023-11-16T22:40:11.876Z,10.40
2023-11-16T22:43:14.883Z,10.39
2023-11-16T22:46:18.270Z,10.35
2023-11-16T22:49:23.830Z,10.34
2023-11-16T22:52:27.289Z,10.31
2023-11-16T22:55:30.911Z,10.27
2023-11-16T22:58:34.923Z,10.27
2023-11-16T23:01:40.270Z,10.22
2023-11-16T23:04:44.837Z,10.16
2023-11-16T23:07:49.095Z,10.12
2023-11-16T23:10:53.953Z,10.07
2023-11-16T23:13:57.010Z,9.97
2023-11-16T23:17:00.272Z,9.86
2023-11-16T23:20:06.758Z,9.87
2023-11-16T23:23:10.323Z,9.77
2023-11-16T23:26:13.302Z,9.75
2023-11-16T23:29:21.130Z,9.73
2023-11-16T23:32:24.342Z,9.74
2023-11-16T23:35:27.397Z,9.73
2023-11-16T23:38:30.320Z,9.72
2023-11-16T23:41:33.452Z,9.75
2023-11-16T23:44:37.606Z,9.79
2023-11-16T23:47:41.540Z,9.80
2023-11-16T23:50:44.996Z,9.83
2023-11-16T23:53:47.887Z,9.88
2023-11-16T23:56:51.066Z,9.88
2023-11-16T23:59:54.501Z,9.89
